Time;durP1;ratioP1;P1;durP2;ratioP2;P2;SDS_P1;SDS_P2;PMS_P1;PMS_P2;Temp;Humidity;BMP_temperature;BMP_pressure;BME280_temperature;BME280_humidity;BME280_pressure;Samples;Min_cycle;Max_cycle;Signal;HPM_P1;HPM_P2
2023/06/29 00:00:16;;;;;;;;;;;;;;;;;;;;;
2023/06/29 00:03:27;;;;;;;;;;;;;;;;;;;;;
2023/06/29 00:09:41;;;;;;;24.90;15.93;;;21.40;87.70;;;;;;4845889;29;88952;-79
2023/06/29 00:22:14;;;;;;;;;;;;;;;;;;;;;
2023/06/29 00:31:15;;;;;;;25.50;15.13;;;21.20;88.90;;;;;;4857033;29;87925;-79
2023/06/29 00:34:50;;;;;;;22.73;15.07;;;21.10;88.90;;;;;;4866142;28;91311;-79
2023/06/29 00:37:50;;;;;;;19.67;13.50;;;21.10;89.50;;;;;;4871274;28;88710;-79
2023/06/29 00:40:32;;;;;;;;;;;;;;;;;;;;;
2023/06/29 00:43:47;;;;;;;24.77;15.60;;;21.10;89.10;;;;;;4874903;28;115656;-78
2023/06/29 00:46:48;;;;;;;26.58;15.85;;;21.10;89.70;;;;;;4876289;28;88226;-79
2023/06/29 00:56:16;;;;;;;28.20;14.60;;;21.20;89.90;;;;;;4792508;29;89719;-79
2023/06/29 00:59:28;;;;;;;23.60;14.88;;;21.10;90.00;;;;;;4819772;29;91627;-79
2023/06/29 01:02:34;;;;;;;;;;;;;;;;;;;;;
2023/06/29 01:41:03;;;;;;;23.38;15.43;;;21.00;90.30;;;;;;4871428;28;88839;-78
2023/06/29 01:50:22;;;;;;;;;;;;;;;;;;;;;
2023/06/29 01:53:11;;;;;;;;;;;;;;;;;;;;;
2023/06/29 01:56:10;;;;;;;26.90;16.55;;;20.90;90.70;;;;;;4876507;28;115590;-78
2023/06/29 02:05:34;;;;;;;21.42;14.27;;;20.80;90.80;;;;;;4862474;28;88794;-79
2023/06/29 02:08:05;;;;;;;27.95;15.27;;;20.80;90.80;;;;;;4878743;28;90744;-79
2023/06/29 02:11:09;;;;;;;;;;;;;;;;;;;;;
2023/06/29 02:13:50;;;;;;;;;;;;;;;;;;;;;
2023/06/29 02:26:54;;;;;;;;;;;;;;;;;;;;;
2023/06/29 02:33:10;;;;;;;;;;;;;;;;;;;;;
2023/06/29 02:36:31;;;;;;;;;;;;;;;;;;;;;
2023/06/29 02:56:37;;;;;;;;;;;;;;;;;;;;;
2023/06/29 02:59:42;;;;;;;;;;;;;;;;;;;;;
2023/06/29 03:06:19;;;;;;;;;;;;;;;;;;;;;
2023/06/29 03:09:44;;;;;;;;;;;;;;;;;;;;;
2023/06/29 03:12:55;;;;;;;;;;;;;;;;;;;;;
2023/06/29 03:16:09;;;;;;;;;;;;;;;;;;;;;
2023/06/29 03:22:35;;;;;;;;;;;;;;;;;;;;;
2023/06/29 03:42:01;;;;;;;;;;;;;;;;;;;;;
2023/06/29 03:54:52;;;;;;;;;;;;;;;;;;;;;
2023/06/29 03:57:54;;;;;;;;;;;;;;;;;;;;;
2023/06/29 04:14:14;;;;;;;23.60;15.63;;;20.50;91.40;;;;;;4865940;28;87696;-78
2023/06/29 04:17:29;;;;;;;;;;;;;;;;;;;;;
2023/06/29 04:20:33;;;;;;;;;;;;;;;;;;;;;
2023/06/29 04:23:29;;;;;;;;;;;;;;;;;;;;;
2023/06/29 04:29:52;;;;;;;;;;;;;;;;;;;;;
2023/06/29 04:33:09;;;;;;;;;;;;;;;;;;;;;
2023/06/29 04:36:15;;;;;;;;;;;;;;;;;;;;;
2023/06/29 04:39:29;;;;;;;27.70;16.08;;;20.40;91.90;;;;;;4874314;28;112050;-78
2023/06/29 04:45:58;;;;;;;30.42;17.40;;;20.40;92.00;;;;;;4798848;29;89798;-78
2023/06/29 04:59:44;;;;;;;30.00;15.45;;;20.50;91.80;;;;;;4811816;29;89764;-78
2023/06/29 05:03:18;;;;;;;;;;;;;;;;;;;;;
2023/06/29 05:06:04;;;;;;;27.98;16.00;;;20.60;91.70;;;;;;4875734;28;87518;-78
2023/06/29 05:16:09;;;;;;;;;;;;;;;;;;;;;
2023/06/29 05:18:48;;;;;;;30.73;16.65;;;20.80;91.40;;;;;;4867799;28;110950;-78
2023/06/29 05:25:42;;;;;;;;;;;;;;;;;;;;;
2023/06/29 05:39:06;;;;;;;;;;;;;;;;;;;;;
2023/06/29 05:41:53;;;;;;;28.63;17.30;;;21.00;90.80;;;;;;4818407;29;117490;-78
2023/06/29 05:44:56;;;;;;;;;;;;;;;;;;;;;
2023/06/29 05:51:44;;;;;;;;;;;;;;;;;;;;;
2023/06/29 05:58:13;;;;;;;29.25;19.25;;;21.30;90.10;;;;;;4769357;29;90771;-78
2023/06/29 06:01:17;;;;;;;;;;;;;;;;;;;;;
2023/06/29 06:30:39;;;;;;;33.78;20.42;;;21.90;86.70;;;;;;5778608;23;88643;-80
2023/06/29 06:33:24;;;;;;;36.05;21.90;;;22.00;86.30;;;;;;4917261;28;87424;-80
2023/06/29 06:35:51;;;;;;;32.28;20.15;;;22.10;85.50;;;;;;4901113;28;89795;-81
2023/06/29 08:14:12;;;;;;;30.10;18.20;;;24.50;78.20;;;;;;5969356;23;88399;-81
2023/06/29 08:16:39;;;;;;;33.83;19.85;;;24.60;74.20;;;;;;4875414;28;87246;-80
2023/06/29 08:19:06;;;;;;;30.70;19.40;;;24.60;73.70;;;;;;4894260;28;87443;-79
2023/06/29 08:21:34;;;;;;;29.92;19.08;;;24.70;74.00;;;;;;4893557;28;87566;-84
2023/06/29 08:27:32;;;;;;;27.85;17.83;;;24.70;73.40;;;;;;4882758;28;87260;-83
2023/06/29 08:33:11;;;;;;;28.52;17.90;;;24.90;73.30;;;;;;4904973;28;87083;-82
2023/06/29 08:35:37;;;;;;;36.83;19.25;;;24.90;73.80;;;;;;4877820;28;89340;-82
2023/06/29 08:38:04;;;;;;;34.05;18.33;;;25.00;73.40;;;;;;4856642;28;88644;-83
2023/06/29 08:40:35;;;;;;;28.55;18.15;;;24.90;72.80;;;;;;4893141;28;88207;-80
2023/06/29 08:43:02;;;;;;;28.15;16.75;;;24.90;73.00;;;;;;4871236;28;89407;-82
2023/06/29 08:45:29;;;;;;;28.73;18.08;;;24.80;72.70;;;;;;4870008;28;87871;-82
2023/06/29 08:47:57;;;;;;;29.45;17.55;;;24.80;72.90;;;;;;4872739;28;87327;-82
2023/06/29 08:50:27;;;;;;;29.40;18.10;;;24.80;72.70;;;;;;4891037;28;88113;-80
2023/06/29 08:52:55;;;;;;;30.20;17.90;;;24.80;73.20;;;;;;4878896;28;90047;-82
2023/06/29 08:55:33;;;;;;;30.77;17.95;;;24.70;73.20;;;;;;4901432;28;89303;-82
2023/06/29 08:58:03;;;;;;;28.98;18.77;;;24.60;73.20;;;;;;4896216;28;87435;-82
2023/06/29 09:00:29;;;;;;;27.63;18.55;;;24.70;73.50;;;;;;4884045;28;88676;-81
2023/06/29 09:03:30;;;;;;;29.73;19.33;;;24.70;73.90;;;;;;4885565;28;90615;-81
2023/06/29 09:14:44;;;;;;;26.88;18.25;;;24.60;72.50;;;;;;5174158;23;87917;-81
2023/06/29 09:17:18;;;;;;;31.52;17.90;;;24.60;72.30;;;;;;4901568;28;90672;-82
2023/06/29 09:19:54;;;;;;;25.02;17.67;;;24.60;71.90;;;;;;4899960;28;87162;-81
2023/06/29 09:32:53;;;;;;;35.30;19.98;;;24.50;72.00;;;;;;5190533;23;87404;-81
2023/06/29 09:35:22;;;;;;;28.90;18.88;;;24.50;71.90;;;;;;4929913;28;89752;-82
2023/06/29 09:38:08;;;;;;;26.98;18.90;;;24.60;72.10;;;;;;4928084;28;88021;-83
2023/06/29 09:41:10;;;;;;;28.88;19.50;;;24.60;71.30;;;;;;4926476;28;87161;-81
2023/06/29 09:43:37;;;;;;;28.88;19.10;;;24.60;71.40;;;;;;4873807;28;88976;-83
2023/06/29 09:46:09;;;;;;;27.70;17.38;;;24.70;71.80;;;;;;4925459;28;87105;-82
2023/06/29 09:49:02;;;;;;;25.58;18.25;;;24.80;71.70;;;;;;4903298;28;88801;-81
2023/06/29 09:51:28;;;;;;;;;;;24.80;70.50;;;;;;4925887;28;87876;-82
2023/06/29 09:54:22;;;;;;;26.30;17.90;;;24.90;68.60;;;;;;4914103;28;87217;-83
2023/06/29 09:56:53;;;;;;;33.17;18.75;;;24.90;69.70;;;;;;4908750;28;89386;-84
2023/06/29 10:12:18;;;;;;;29.65;19.13;;;25.30;68.30;;;;;;5298357;23;87604;-85
2023/06/29 10:14:50;;;;;;;27.58;18.65;;;25.30;68.80;;;;;;4909922;28;88246;-85
2023/06/29 10:18:04;;;;;;;31.97;19.97;;;25.40;69.10;;;;;;4917782;28;88250;-83
2023/06/29 10:20:49;;;;;;;30.42;19.88;;;25.50;68.10;;;;;;4910469;28;87065;-84
2023/06/29 10:23:22;;;;;;;27.85;18.05;;;25.60;68.50;;;;;;4906925;28;88043;-84
2023/06/29 10:26:26;;;;;;;30.73;18.73;;;25.70;67.10;;;;;;4893588;28;88663;-85
2023/06/29 10:29:05;;;;;;;27.35;19.40;;;25.60;66.30;;;;;;4907383;28;88550;-84
2023/06/29 10:31:37;;;;;;;28.30;18.48;;;25.70;67.30;;;;;;4903374;28;88508;-84
2023/06/29 12:02:22;;;;;;;40.00;23.10;;;23.80;71.40;;;;;;5912337;23;89589;-82
2023/06/29 12:04:56;;;;;;;41.03;23.75;;;23.60;70.80;;;;;;4882351;28;88541;-81
2023/06/29 12:07:35;;;;;;;;;;;23.60;72.10;;;;;;4890066;28;88548;-81
2023/06/29 12:10:26;;;;;;;46.67;26.38;;;23.50;71.90;;;;;;4899358;28;87678;-81
2023/06/29 12:12:59;;;;;;;39.83;25.23;;;23.50;72.30;;;;;;4876263;28;89849;-80
2023/06/29 12:15:27;;;;;;;42.50;24.52;;;23.30;71.90;;;;;;4902565;28;88670;-81
2023/06/29 12:18:28;;;;;;;35.83;23.10;;;23.40;73.20;;;;;;4885880;28;86986;-80
2023/06/29 12:21:05;;;;;;;40.58;24.23;;;23.30;71.90;;;;;;4877783;28;88023;-82
2023/06/29 12:23:31;;;;;;;40.22;24.88;;;23.30;73.70;;;;;;4876150;28;88144;-81
2023/06/29 12:25:57;;;;;;;38.50;24.80;;;23.20;72.70;;;;;;4864801;28;89529;-78
2023/06/29 12:28:23;;;;;;;36.55;23.52;;;23.10;73.20;;;;;;4859847;28;88103;-78
2023/06/29 12:30:50;;;;;;;40.17;24.58;;;23.10;73.80;;;;;;4880657;28;87888;-79
2023/06/29 12:33:15;;;;;;;42.97;24.35;;;23.00;74.50;;;;;;4877908;28;91383;-77
2023/06/29 12:35:44;;;;;;;43.47;24.77;;;23.10;74.30;;;;;;4876793;28;91939;-80
2023/06/29 12:38:11;;;;;;;39.85;25.35;;;23.00;74.20;;;;;;4880981;28;87335;-78
2023/06/29 12:40:38;;;;;;;37.70;24.85;;;23.00;74.20;;;;;;4884445;28;87627;-78
2023/06/29 12:43:03;;;;;;;40.75;25.05;;;22.90;75.10;;;;;;4876496;28;90755;-78
2023/06/29 12:45:29;;;;;;;39.90;25.52;;;22.90;75.20;;;;;;4880148;28;87851;-78
2023/06/29 12:47:56;;;;;;;37.38;24.45;;;22.80;75.50;;;;;;4881089;28;87486;-79
2023/06/29 12:50:22;;;;;;;42.67;25.58;;;22.70;76.40;;;;;;4880657;28;89481;-78
2023/06/29 12:52:48;;;;;;;41.05;24.75;;;22.70;76.90;;;;;;4861005;28;90958;-79
2023/06/29 12:55:15;;;;;;;38.28;23.52;;;22.60;76.00;;;;;;4885800;28;87406;-80
2023/06/29 12:57:43;;;;;;;40.88;23.75;;;22.60;75.40;;;;;;4862428;28;89123;-79
2023/06/29 13:00:09;;;;;;;39.00;22.58;;;22.50;76.10;;;;;;4880513;28;87530;-80
2023/06/29 13:02:35;;;;;;;41.30;23.17;;;22.50;77.30;;;;;;4879121;28;89009;-79
2023/06/29 13:05:04;;;;;;;35.70;23.08;;;22.50;77.30;;;;;;4861111;28;87522;-79
2023/06/29 13:07:30;;;;;;;36.35;22.13;;;22.50;75.50;;;;;;4863314;28;87115;-80
2023/06/29 13:09:57;;;;;;;36.78;21.63;;;22.50;76.50;;;;;;4862427;28;88454;-78
2023/06/29 13:12:23;;;;;;;36.58;21.20;;;22.60;77.00;;;;;;4880121;28;90780;-80
2023/06/29 13:14:50;;;;;;;35.20;21.35;;;22.60;76.00;;;;;;4883435;28;90498;-81
2023/06/29 13:17:16;;;;;;;33.00;21.25;;;22.60;75.90;;;;;;4893349;28;87263;-80
2023/06/29 13:19:49;;;;;;;31.58;20.42;;;22.60;75.90;;;;;;4873339;28;89356;-81
2023/06/29 13:22:18;;;;;;;33.03;21.50;;;22.70;76.40;;;;;;4897384;28;90244;-80
2023/06/29 13:24:45;;;;;;;31.20;21.25;;;22.70;74.70;;;;;;4882274;28;89753;-80
2023/06/29 13:27:13;;;;;;;37.85;20.25;;;22.80;75.00;;;;;;4881180;28;87692;-82
2023/06/29 13:29:39;;;;;;;32.60;21.10;;;23.00;75.10;;;;;;4860016;28;89240;-78
2023/06/29 13:32:06;;;;;;;45.92;21.35;;;23.30;75.50;;;;;;4877893;28;87776;-79
2023/06/29 13:34:32;;;;;;;33.83;22.05;;;23.50;73.60;;;;;;4877259;28;91503;-77
2023/06/29 13:36:58;;;;;;;32.75;21.27;;;23.80;72.80;;;;;;4876092;28;87538;-78
2023/06/29 13:39:25;;;;;;;29.88;20.20;;;24.10;71.00;;;;;;4867505;28;89253;-79
2023/06/29 13:41:51;;;;;;;31.10;21.52;;;24.50;70.90;;;;;;4860603;28;87961;-80
2023/06/29 13:44:16;;;;;;;38.03;22.27;;;24.80;66.80;;;;;;4846653;28;90180;-79
2023/06/29 13:46:45;;;;;;;32.78;21.50;;;25.10;68.00;;;;;;4876771;28;89845;-79
2023/06/29 13:49:16;;;;;;;34.00;21.95;;;25.50;66.80;;;;;;4877111;28;87580;-80
2023/06/29 13:51:42;;;;;;;32.03;21.08;;;25.90;66.80;;;;;;4859014;28;90524;-78
2023/06/29 13:54:09;;;;;;;34.78;22.25;;;26.40;61.20;;;;;;4874757;28;89117;-80
2023/06/29 13:56:37;;;;;;;33.95;22.67;;;26.50;61.20;;;;;;4878378;28;87835;-80
2023/06/29 13:59:06;;;;;;;32.20;21.08;;;26.70;60.30;;;;;;4880754;28;88562;-79
2023/06/29 14:01:35;;;;;;;34.13;23.13;;;27.00;60.40;;;;;;4864456;28;89408;-79
2023/06/29 14:04:02;;;;;;;30.08;22.10;;;27.20;58.90;;;;;;4879503;28;90515;-79
2023/06/29 14:06:28;;;;;;;31.30;22.27;;;27.60;58.50;;;;;;4861093;28;87840;-79
2023/06/29 14:08:53;;;;;;;49.88;23.50;;;27.80;57.50;;;;;;4878660;28;87845;-79
2023/06/29 14:11:19;;;;;;;32.05;21.60;;;27.90;57.00;;;;;;4876285;28;91650;-79
2023/06/29 14:13:46;;;;;;;32.38;23.20;;;28.10;59.10;;;;;;4877034;28;88668;-79
2023/06/29 14:16:11;;;;;;;32.88;23.10;;;28.30;55.90;;;;;;4874785;28;87848;-79
2023/06/29 14:18:38;;;;;;;32.03;23.77;;;28.50;54.60;;;;;;4877692;28;87605;-78
2023/06/29 14:21:04;;;;;;;30.20;22.83;;;28.50;54.00;;;;;;4876047;28;90081;-78
2023/06/29 14:23:31;;;;;;;30.40;22.73;;;28.40;55.20;;;;;;4878476;28;90538;-79
2023/06/29 14:25:57;;;;;;;33.95;22.70;;;28.40;55.40;;;;;;4879984;28;87543;-80
2023/06/29 14:28:23;;;;;;;35.45;23.70;;;28.50;54.10;;;;;;4878350;28;88810;-79
2023/06/29 14:30:52;;;;;;;34.10;23.33;;;28.80;56.20;;;;;;4879532;28;88731;-79
2023/06/29 14:33:17;;;;;;;40.17;24.58;;;29.30;55.40;;;;;;4879006;28;87944;-78
2023/06/29 14:35:44;;;;;;;37.10;25.02;;;29.50;52.60;;;;;;4882889;28;88474;-80
2023/06/29 14:38:11;;;;;;;35.20;24.98;;;29.60;52.20;;;;;;4885444;28;89881;-79
2023/06/29 14:40:36;;;;;;;34.15;24.95;;;29.80;52.70;;;;;;4869583;28;90166;-80
2023/06/29 14:43:03;;;;;;;35.08;25.25;;;29.90;52.00;;;;;;4882998;28;88492;-80
2023/06/29 14:45:29;;;;;;;31.65;23.92;;;29.90;52.50;;;;;;4885260;28;87749;-81
2023/06/29 14:47:54;;;;;;;33.60;25.02;;;29.90;51.60;;;;;;4882761;28;89339;-81
2023/06/29 14:50:20;;;;;;;34.10;23.98;;;30.00;50.80;;;;;;4891984;28;91123;-80
2023/06/29 14:52:46;;;;;;;33.38;24.48;;;30.20;50.90;;;;;;4885486;28;89880;-80
2023/06/29 14:55:14;;;;;;;34.67;25.17;;;30.30;50.60;;;;;;4886082;28;87804;-80
2023/06/29 14:57:40;;;;;;;34.83;24.40;;;30.60;51.10;;;;;;4888631;28;87608;-81
2023/06/29 15:00:12;;;;;;;32.55;24.02;;;30.70;49.20;;;;;;4892984;28;91452;-82
2023/06/29 15:02:43;;;;;;;34.28;25.75;;;30.70;49.70;;;;;;4893938;28;89824;-80
2023/06/29 15:05:09;;;;;;;33.88;24.75;;;30.70;49.80;;;;;;4895985;28;87860;-81
2023/06/29 15:07:36;;;;;;;33.97;26.40;;;30.60;50.80;;;;;;4893704;28;87602;-82
2023/06/29 15:10:02;;;;;;;37.30;24.75;;;30.50;49.00;;;;;;4890674;28;87477;-81
2023/06/29 15:12:28;;;;;;;35.97;24.10;;;30.30;51.10;;;;;;4889118;28;89646;-80
2023/06/29 15:14:55;;;;;;;32.20;24.40;;;30.40;51.60;;;;;;4888082;28;87538;-78
2023/06/29 15:17:24;;;;;;;35.05;24.90;;;30.40;50.90;;;;;;4873219;28;86708;-82
2023/06/29 15:19:53;;;;;;;33.20;25.48;;;30.30;50.30;;;;;;4886742;28;88282;-79
2023/06/29 15:22:25;;;;;;;34.03;25.05;;;30.10;50.30;;;;;;4870073;28;90531;-81
2023/06/29 15:24:55;;;;;;;32.10;23.40;;;29.70;51.30;;;;;;4874918;28;88405;-81
2023/06/29 15:27:21;;;;;;;39.00;24.35;;;29.40;52.00;;;;;;4887159;28;88882;-81
2023/06/29 15:29:52;;;;;;;35.78;23.77;;;29.00;52.30;;;;;;4891343;28;88260;-81
2023/06/29 15:32:18;;;;;;;37.40;24.98;;;28.80;53.80;;;;;;4890871;28;87177;-81
2023/06/29 15:34:48;;;;;;;37.20;26.27;;;28.60;53.40;;;;;;4881292;28;87148;-81
2023/06/29 15:37:15;;;;;;;40.47;28.67;;;28.30;55.30;;;;;;4890949;28;88034;-81
2023/06/29 15:39:41;;;;;;;39.47;28.63;;;27.80;58.90;;;;;;4889497;28;88550;-82
2023/06/29 15:42:07;;;;;;;46.65;30.27;;;27.20;61.40;;;;;;4877087;28;89201;-82
2023/06/29 15:44:35;;;;;;;43.05;30.08;;;26.70;63.20;;;;;;4895612;28;87245;-82
2023/06/29 15:47:02;;;;;;;46.47;30.15;;;26.30;66.60;;;;;;4895249;28;88855;-82
2023/06/29 15:49:28;;;;;;;49.00;31.65;;;25.90;67.80;;;;;;4885715;28;88895;-81
2023/06/29 15:51:55;;;;;;;46.15;31.98;;;25.50;68.70;;;;;;4898073;28;88652;-82
2023/06/29 15:54:22;;;;;;;46.72;31.17;;;25.20;69.60;;;;;;4896983;28;87202;-82
2023/06/29 15:56:49;;;;;;;48.33;29.83;;;25.00;70.70;;;;;;4886431;28;87105;-82
2023/06/29 15:59:15;;;;;;;52.97;32.10;;;24.80;71.40;;;;;;4887550;28;89309;-82
2023/06/29 16:02:04;;;;;;;45.70;30.48;;;24.70;72.00;;;;;;4899988;28;89143;-81
2023/06/29 16:04:32;;;;;;;50.70;32.65;;;24.50;72.60;;;;;;4899405;28;87648;-81
2023/06/29 16:07:07;;;;;;;51.58;32.80;;;24.40;73.40;;;;;;4884594;28;88106;-82
2023/06/29 16:09:37;;;;;;;49.05;30.30;;;24.30;73.50;;;;;;4883906;28;88259;-80
2023/06/29 16:12:08;;;;;;;48.92;31.48;;;24.20;74.80;;;;;;4898715;28;88253;-82
2023/06/29 16:14:33;;;;;;;46.03;29.52;;;24.10;74.80;;;;;;4898962;28;88256;-81
2023/06/29 16:17:00;;;;;;;47.55;30.23;;;23.90;75.00;;;;;;4897417;28;87910;-82
2023/06/29 16:19:29;;;;;;;47.30;31.65;;;23.90;75.00;;;;;;4885819;28;89481;-81
2023/06/29 16:21:59;;;;;;;47.78;31.25;;;23.80;75.70;;;;;;4896163;28;89511;-81
2023/06/29 16:24:25;;;;;;;50.88;31.48;;;23.80;75.80;;;;;;4898641;28;87575;-81
2023/06/29 16:26:54;;;;;;;50.58;31.73;;;23.60;76.10;;;;;;4871275;28;87977;-81
2023/06/29 16:29:19;;;;;;;52.55;31.77;;;23.40;77.20;;;;;;4869096;28;89868;-80
2023/06/29 16:31:50;;;;;;;48.60;31.33;;;23.20;78.90;;;;;;4870012;28;90136;-81
2023/06/29 16:34:16;;;;;;;55.65;31.10;;;23.10;79.90;;;;;;4888509;28;87654;-81
2023/06/29 16:36:42;;;;;;;54.08;31.92;;;23.10;81.10;;;;;;4892250;28;88545;-81
2023/06/29 16:39:07;;;;;;;50.08;31.20;;;23.10;80.60;;;;;;4888623;28;90214;-81
2023/06/29 16:41:33;;;;;;;45.25;29.05;;;22.90;82.40;;;;;;4887936;28;90111;-81
2023/06/29 16:44:00;;;;;;;47.97;29.08;;;22.70;83.10;;;;;;4873791;28;88051;-81
2023/06/29 16:46:26;;;;;;;46.67;28.13;;;22.60;83.00;;;;;;4890096;28;89233;-81
2023/06/29 16:49:00;;;;;;;41.30;27.25;;;22.60;83.60;;;;;;4889257;28;89822;-80
2023/06/29 16:51:30;;;;;;;41.97;26.20;;;22.50;84.70;;;;;;4872217;28;89695;-82
2023/06/29 16:53:58;;;;;;;45.00;28.17;;;22.50;85.80;;;;;;4892682;28;87096;-81
2023/06/29 16:56:31;;;;;;;41.83;26.42;;;22.60;86.80;;;;;;4887742;28;88227;-81
2023/06/29 16:58:57;;;;;;;42.10;26.75;;;22.70;85.70;;;;;;4876692;28;90197;-82
2023/06/29 17:01:23;;;;;;;43.28;28.13;;;22.70;86.50;;;;;;4887539;28;88735;-81
2023/06/29 17:03:48;;;;;;;44.58;28.58;;;22.70;87.40;;;;;;4888921;28;88355;-81
2023/06/29 17:06:15;;;;;;;41.63;26.33;;;22.90;87.80;;;;;;4890291;28;87292;-82
2023/06/29 17:08:43;;;;;;;46.83;29.70;;;23.00;86.80;;;;;;4892626;28;88028;-80
2023/06/29 17:11:13;;;;;;;41.05;26.85;;;23.10;86.90;;;;;;4872618;28;89368;-81
2023/06/29 17:13:39;;;;;;;44.53;27.73;;;23.10;85.80;;;;;;4858070;28;87174;-81
2023/06/29 17:16:07;;;;;;;41.05;27.38;;;23.20;85.90;;;;;;4891256;28;88083;-81
2023/06/29 17:18:34;;;;;;;40.45;26.83;;;23.20;84.00;;;;;;4886585;28;90704;-81
2023/06/29 17:21:04;;;;;;;39.47;27.58;;;23.20;84.20;;;;;;4872668;28;90272;-80
2023/06/29 17:23:31;;;;;;;45.78;28.98;;;23.10;84.10;;;;;;4888343;28;87270;-81
2023/06/29 17:25:57;;;;;;;46.60;28.10;;;23.00;83.40;;;;;;4887765;28;87784;-80
2023/06/29 17:28:23;;;;;;;46.45;29.50;;;22.90;84.60;;;;;;4885698;28;90912;-81
2023/06/29 17:30:51;;;;;;;44.95;27.13;;;22.80;84.60;;;;;;4889558;28;91241;-82
2023/06/29 17:33:18;;;;;;;47.15;29.73;;;22.70;84.80;;;;;;4897023;28;87222;-80
2023/06/29 17:36:23;;;;;;;47.17;29.30;;;22.70;85.40;;;;;;4907147;28;86964;-82
2023/06/29 17:39:05;;;;;;;45.92;28.27;;;22.60;85.90;;;;;;4907591;28;88402;-82
2023/06/29 17:42:22;;;;;;;43.45;27.90;;;22.50;86.30;;;;;;4903305;28;87028;-83
2023/06/29 19:16:59;;;;;;;28.83;19.58;;;19.20;95.90;;;;;;5563512;23;88336;-79
2023/06/29 19:19:25;;;;;;;30.15;18.27;;;19.20;96.00;;;;;;4899522;28;87605;-79
2023/06/29 19:21:52;;;;;;;28.15;18.33;;;19.20;96.20;;;;;;4896470;28;87924;-78
2023/06/29 19:24:18;;;;;;;29.58;18.27;;;19.10;96.10;;;;;;4898107;28;89248;-78
2023/06/29 19:26:44;;;;;;;29.13;17.35;;;19.10;96.20;;;;;;4897706;28;88780;-80
2023/06/29 19:29:10;;;;;;;27.10;17.65;;;19.10;96.30;;;;;;4896148;28;87459;-79
2023/06/29 19:31:36;;;;;;;27.58;16.70;;;19.10;96.40;;;;;;4900220;28;86924;-79
2023/06/29 19:34:02;;;;;;;26.63;16.33;;;19.00;96.30;;;;;;4882141;28;89292;-78
2023/06/29 19:36:30;;;;;;;26.70;16.38;;;18.90;96.40;;;;;;4897234;28;88848;-80
2023/06/29 19:38:55;;;;;;;28.50;16.30;;;18.90;96.50;;;;;;4881590;28;89481;-79
2023/06/29 19:41:21;;;;;;;28.20;16.67;;;18.90;96.50;;;;;;4899390;28;87907;-80
2023/06/29 19:43:47;;;;;;;26.27;16.30;;;18.90;96.60;;;;;;4881612;28;89108;-79
2023/06/29 19:46:12;;;;;;;21.63;14.70;;;18.90;96.60;;;;;;4881225;28;89778;-79
2023/06/29 19:48:38;;;;;;;26.55;17.15;;;18.90;96.80;;;;;;4881830;28;87523;-79
2023/06/29 19:51:04;;;;;;;28.25;15.32;;;18.80;96.80;;;;;;4899751;28;88128;-82
2023/06/29 19:53:30;;;;;;;22.92;15.15;;;18.80;96.80;;;;;;4883549;28;89177;-80
2023/06/29 19:55:55;;;;;;;22.17;14.48;;;18.80;96.80;;;;;;4895694;28;90138;-80
2023/06/29 19:58:26;;;;;;;22.77;14.77;;;18.80;96.70;;;;;;4897658;28;87962;-80
2023/06/29 20:00:53;;;;;;;21.67;12.70;;;18.80;96.70;;;;;;4879355;28;87796;-79
2023/06/29 20:03:19;;;;;;;20.55;13.25;;;18.70;96.40;;;;;;4882570;28;90251;-80
2023/06/29 20:05:45;;;;;;;24.40;13.68;;;18.70;96.60;;;;;;4896436;28;91078;-79
2023/06/29 20:08:11;;;;;;;21.38;12.85;;;18.60;96.80;;;;;;4882760;28;87771;-80
2023/06/29 20:10:36;;;;;;;18.27;12.15;;;18.60;96.60;;;;;;4880767;28;89323;-78
2023/06/29 20:13:02;;;;;;;17.90;12.73;;;18.60;96.50;;;;;;4879857;28;90630;-79
2023/06/29 20:15:28;;;;;;;19.45;12.73;;;18.50;96.30;;;;;;4897650;28;88703;-79
2023/06/29 20:17:53;;;;;;;15.98;12.15;;;18.50;96.60;;;;;;4898218;28;87662;-80
2023/06/29 20:20:19;;;;;;;16.75;12.40;;;18.50;96.50;;;;;;4901498;28;88684;-79
2023/06/29 20:22:45;;;;;;;22.10;12.63;;;18.40;96.20;;;;;;4896621;28;90673;-78
2023/06/29 20:28:21;;;;;;;18.83;13.52;;;18.30;96.30;;;;;;4913327;28;88590;-76
2023/06/29 20:30:47;;;;;;;17.40;13.75;;;18.30;96.10;;;;;;4918295;28;87588;-76
2023/06/29 20:33:13;;;;;;;18.35;13.45;;;18.20;96.40;;;;;;4917954;28;88958;-77
2023/06/29 20:35:38;;;;;;;18.02;13.32;;;18.20;96.40;;;;;;4917857;28;87459;-76
2023/06/29 20:38:04;;;;;;;18.33;14.02;;;18.20;96.50;;;;;;4918583;28;87894;-77
2023/06/29 20:40:29;;;;;;;20.75;14.02;;;18.20;96.40;;;;;;4918129;28;87743;-77
2023/06/29 20:42:58;;;;;;;18.02;13.80;;;18.10;96.60;;;;;;4917797;28;88675;-76
2023/06/29 20:45:25;;;;;;;24.05;14.10;;;18.10;96.70;;;;;;4918535;28;88046;-77
2023/06/29 20:47:51;;;;;;;19.02;13.73;;;18.10;96.70;;;;;;4917450;28;87743;-77
2023/06/29 20:50:17;;;;;;;18.92;14.55;;;18.10;96.80;;;;;;4917494;28;87828;-76
2023/06/29 20:52:42;;;;;;;18.17;13.35;;;18.00;97.00;;;;;;4916935;28;88822;-76
2023/06/29 20:55:08;;;;;;;17.67;14.82;;;18.00;97.20;;;;;;4917420;28;88792;-76
2023/06/29 20:57:37;;;;;;;17.63;12.70;;;18.00;97.40;;;;;;4917944;28;87581;-76
2023/06/29 21:00:06;;;;;;;18.50;12.48;;;18.00;97.30;;;;;;4918183;28;87987;-76
2023/06/29 21:02:32;;;;;;;12.70;10.57;;;18.00;97.50;;;;;;4917547;28;88659;-76
2023/06/29 21:04:58;;;;;;;12.88;8.13;;;17.90;97.40;;;;;;4918593;28;88198;-76
2023/06/29 21:07:23;;;;;;;13.55;8.23;;;17.90;97.10;;;;;;4925477;28;87541;-76
2023/06/29 21:09:49;;;;;;;9.77;8.13;;;17.90;97.30;;;;;;4925029;28;88136;-77
2023/06/29 21:12:15;;;;;;;9.93;6.97;;;17.80;97.10;;;;;;4924308;28;88110;-76
2023/06/29 21:14:41;;;;;;;7.13;5.55;;;17.70;96.90;;;;;;4924496;28;88266;-76
2023/06/29 21:17:07;;;;;;;6.30;5.65;;;17.70;96.70;;;;;;4924223;28;88805;-76
2023/06/29 21:19:33;;;;;;;9.63;6.10;;;17.70;96.50;;;;;;4924183;28;87630;-76
2023/06/29 21:21:59;;;;;;;7.65;5.60;;;17.70;96.90;;;;;;4923878;28;87519;-76
2023/06/29 21:24:25;;;;;;;9.30;6.43;;;17.60;96.70;;;;;;4924536;28;88593;-76
2023/06/29 21:26:51;;;;;;;7.68;5.20;;;17.70;96.70;;;;;;4907079;28;87629;-76
2023/06/29 21:29:20;;;;;;;9.73;5.32;;;17.70;96.60;;;;;;4924575;28;87554;-76
2023/06/29 21:31:50;;;;;;;7.05;5.00;;;17.60;96.40;;;;;;4924149;28;88818;-76
2023/06/29 21:34:16;;;;;;;8.43;5.00;;;17.60;96.50;;;;;;4925456;28;88584;-76
2023/06/29 21:36:42;;;;;;;7.15;5.07;;;17.50;96.80;;;;;;4924033;28;87671;-76
2023/06/29 21:39:08;;;;;;;5.38;4.22;;;17.40;96.80;;;;;;4924275;28;87942;-76
2023/06/29 21:41:38;;;;;;;4.00;3.05;;;17.50;96.90;;;;;;4924268;28;89138;-76
2023/06/29 21:44:04;;;;;;;3.55;3.17;;;17.40;96.60;;;;;;4906509;28;90179;-77
2023/06/29 21:46:29;;;;;;;3.08;2.70;;;17.30;96.60;;;;;;4924959;28;87549;-76
2023/06/29 21:48:55;;;;;;;6.32;3.08;;;17.30;96.70;;;;;;4925697;28;87449;-76
2023/06/29 21:51:26;;;;;;;5.78;3.28;;;17.20;96.80;;;;;;4923292;28;88325;-77
2023/06/29 21:53:52;;;;;;;5.90;2.65;;;17.20;97.00;;;;;;4923808;28;87506;-77
2023/06/29 21:56:18;;;;;;;3.13;2.83;;;17.20;96.90;;;;;;4925090;28;87486;-76
2023/06/29 21:58:43;;;;;;;4.07;2.50;;;17.30;97.00;;;;;;4925436;28;87229;-77
2023/06/29 22:01:09;;;;;;;4.68;3.38;;;17.20;97.10;;;;;;4924071;28;87590;-77
2023/06/29 22:03:34;;;;;;;7.55;2.67;;;17.20;97.00;;;;;;4924025;28;88293;-77
2023/06/29 22:06:00;;;;;;;4.82;2.40;;;17.20;96.70;;;;;;4923023;28;88478;-77
2023/06/29 22:08:27;;;;;;;2.28;1.67;;;17.20;96.70;;;;;;4924510;28;87611;-77
2023/06/29 22:10:52;;;;;;;2.67;1.60;;;17.10;96.50;;;;;;4907141;28;91945;-77
2023/06/29 22:13:24;;;;;;;5.13;1.67;;;17.10;96.40;;;;;;4923004;28;89355;-77
2023/06/29 22:15:52;;;;;;;3.78;1.90;;;17.00;96.50;;;;;;4921827;28;87970;-77
2023/06/29 22:18:19;;;;;;;3.65;1.70;;;17.00;96.40;;;;;;4917884;28;87420;-77
2023/06/29 22:20:45;;;;;;;2.42;1.50;;;17.00;96.30;;;;;;4917833;28;89207;-77
2023/06/29 22:23:13;;;;;;;5.00;1.67;;;17.00;96.20;;;;;;4901716;28;90894;-77
2023/06/29 22:25:38;;;;;;;3.65;1.77;;;16.90;96.20;;;;;;4919943;28;87868;-77
2023/06/29 22:28:04;;;;;;;4.65;2.10;;;16.90;96.40;;;;;;4919381;28;87722;-77
2023/06/29 22:30:30;;;;;;;3.92;1.80;;;16.80;96.30;;;;;;4918404;28;88323;-77
2023/06/29 22:32:55;;;;;;;2.65;1.58;;;16.80;96.50;;;;;;4919497;28;87690;-77
2023/06/29 22:35:21;;;;;;;5.75;2.13;;;16.80;96.60;;;;;;4901442;28;87475;-76
2023/06/29 22:37:47;;;;;;;5.38;2.25;;;16.80;96.40;;;;;;4919388;28;87779;-77
2023/06/29 22:40:12;;;;;;;7.72;2.72;;;16.80;96.40;;;;;;4919146;28;88226;-77
2023/06/29 22:42:38;;;;;;;4.03;2.00;;;16.80;96.50;;;;;;4919641;28;88617;-77
2023/06/29 22:45:04;;;;;;;4.43;2.20;;;16.80;96.50;;;;;;4919447;28;87701;-77
2023/06/29 22:47:30;;;;;;;4.55;1.80;;;16.70;96.70;;;;;;4919659;28;87603;-77
2023/06/29 22:49:55;;;;;;;4.25;1.98;;;16.70;96.70;;;;;;4918942;28;88873;-78